sensor_id;sensor_type;location;lat;lon;timestamp;P1;durP1;ratioP1;P2;durP2;ratioP2
15776;SDS011;7989;51.198;6.676;2022-07-29T00:01:32;8.13;;;2.08;;
15776;SDS011;7989;51.198;6.676;2022-07-29T00:04:00;7.70;;;2.47;;
15776;SDS011;7989;51.198;6.676;2022-07-29T00:06:27;3.47;;;1.73;;
15776;SDS011;7989;51.198;6.676;2022-07-29T00:08:54;12.30;;;1.85;;
15776;SDS011;7989;51.198;6.676;2022-07-29T00:11:21;7.07;;;3.08;;
15776;SDS011;7989;51.198;6.676;2022-07-29T00:13:48;7.72;;;2.75;;
15776;SDS011;7989;51.198;6.676;2022-07-29T00:16:15;7.18;;;3.38;;
15776;SDS011;7989;51.198;6.676;2022-07-29T00:18:41;4.28;;;1.80;;
15776;SDS011;7989;51.198;6.676;2022-07-29T00:21:09;6.30;;;3.45;;
15776;SDS011;7989;51.198;6.676;2022-07-29T00:23:36;8.38;;;4.15;;
15776;SDS011;7989;51.198;6.676;2022-07-29T00:26:03;7.15;;;2.50;;
15776;SDS011;7989;51.198;6.676;2022-07-29T00:28:30;7.18;;;3.42;;
15776;SDS011;7989;51.198;6.676;2022-07-29T00:30:57;8.80;;;3.15;;
15776;SDS011;7989;51.198;6.676;2022-07-29T00:33:23;7.72;;;4.22;;
15776;SDS011;7989;51.198;6.676;2022-07-29T00:35:50;13.98;;;2.72;;
15776;SDS011;7989;51.198;6.676;2022-07-29T00:38:18;5.60;;;2.80;;
15776;SDS011;7989;51.198;6.676;2022-07-29T00:40:46;7.22;;;3.53;;
15776;SDS011;7989;51.198;6.676;2022-07-29T00:43:14;7.90;;;2.25;;
15776;SDS011;7989;51.198;6.676;2022-07-29T00:45:41;7.05;;;4.05;;
15776;SDS011;7989;51.198;6.676;2022-07-29T00:48:08;10.23;;;3.35;;
15776;SDS011;7989;51.198;6.676;2022-07-29T00:50:35;9.35;;;2.33;;
15776;SDS011;7989;51.198;6.676;2022-07-29T00:53:03;6.05;;;2.28;;
15776;SDS011;7989;51.198;6.676;2022-07-29T00:55:31;7.20;;;2.80;;
15776;SDS011;7989;51.198;6.676;2022-07-29T00:57:58;9.30;;;2.50;;
15776;SDS011;7989;51.198;6.676;2022-07-29T01:00:26;8.18;;;2.30;;
15776;SDS011;7989;51.198;6.676;2022-07-29T01:02:54;7.93;;;2.58;;
15776;SDS011;7989;51.198;6.676;2022-07-29T01:05:21;11.85;;;2.65;;
15776;SDS011;7989;51.198;6.676;2022-07-29T01:07:52;3.67;;;2.40;;
15776;SDS011;7989;51.198;6.676;2022-07-29T01:10:20;9.38;;;2.78;;
15776;SDS011;7989;51.198;6.676;2022-07-29T01:12:50;5.70;;;2.28;;
15776;SDS011;7989;51.198;6.676;2022-07-29T01:15:18;10.05;;;2.67;;
15776;SDS011;7989;51.198;6.676;2022-07-29T01:17:48;11.15;;;2.17;;
15776;SDS011;7989;51.198;6.676;2022-07-29T01:20:22;8.65;;;2.67;;
15776;SDS011;7989;51.198;6.676;2022-07-29T01:23:01;14.05;;;2.75;;
15776;SDS011;7989;51.198;6.676;2022-07-29T01:28:54;9.65;;;2.80;;
15776;SDS011;7989;51.198;6.676;2022-07-29T01:31:27;5.72;;;2.65;;
15776;SDS011;7989;51.198;6.676;2022-07-29T01:34:01;4.80;;;2.50;;
15776;SDS011;7989;51.198;6.676;2022-07-29T01:36:32;4.22;;;1.77;;
15776;SDS011;7989;51.198;6.676;2022-07-29T01:39:04;8.85;;;2.00;;
15776;SDS011;7989;51.198;6.676;2022-07-29T01:41:35;4.65;;;1.90;;
15776;SDS011;7989;51.198;6.676;2022-07-29T01:44:10;3.40;;;2.00;;
15776;SDS011;7989;51.198;6.676;2022-07-29T01:46:41;5.60;;;1.90;;
15776;SDS011;7989;51.198;6.676;2022-07-29T01:49:16;7.00;;;1.90;;
15776;SDS011;7989;51.198;6.676;2022-07-29T01:51:47;5.35;;;2.00;;
15776;SDS011;7989;51.198;6.676;2022-07-29T01:54:18;5.28;;;2.22;;
15776;SDS011;7989;51.198;6.676;2022-07-29T01:56:51;3.67;;;2.00;;
15776;SDS011;7989;51.198;6.676;2022-07-29T01:59:22;4.22;;;1.98;;
15776;SDS011;7989;51.198;6.676;2022-07-29T02:01:53;3.22;;;1.63;;
15776;SDS011;7989;51.198;6.676;2022-07-29T02:04:20;8.32;;;2.60;;
15776;SDS011;7989;51.198;6.676;2022-07-29T02:06:49;4.32;;;2.30;;
15776;SDS011;7989;51.198;6.676;2022-07-29T02:09:18;5.68;;;2.33;;
15776;SDS011;7989;51.198;6.676;2022-07-29T02:11:47;4.50;;;2.28;;
15776;SDS011;7989;51.198;6.676;2022-07-29T02:14:17;8.73;;;6.68;;
15776;SDS011;7989;51.198;6.676;2022-07-29T02:16:46;11.73;;;2.95;;
15776;SDS011;7989;51.198;6.676;2022-07-29T02:19:14;9.95;;;3.33;;
15776;SDS011;7989;51.198;6.676;2022-07-29T02:21:45;8.65;;;1.80;;
15776;SDS011;7989;51.198;6.676;2022-07-29T02:24:13;9.82;;;4.82;;
15776;SDS011;7989;51.198;6.676;2022-07-29T02:26:42;5.03;;;2.45;;
15776;SDS011;7989;51.198;6.676;2022-07-29T02:29:10;8.38;;;4.22;;
15776;SDS011;7989;51.198;6.676;2022-07-29T02:31:38;11.85;;;3.65;;
15776;SDS011;7989;51.198;6.676;2022-07-29T02:34:09;5.57;;;2.78;;
15776;SDS011;7989;51.198;6.676;2022-07-29T02:36:37;3.83;;;2.20;;
15776;SDS011;7989;51.198;6.676;2022-07-29T02:39:05;5.00;;;2.25;;
15776;SDS011;7989;51.198;6.676;2022-07-29T02:41:35;5.22;;;2.38;;
15776;SDS011;7989;51.198;6.676;2022-07-29T02:44:09;5.65;;;1.80;;
15776;SDS011;7989;51.198;6.676;2022-07-29T02:46:37;4.43;;;2.75;;
15776;SDS011;7989;51.198;6.676;2022-07-29T02:49:14;4.63;;;3.03;;
15776;SDS011;7989;51.198;6.676;2022-07-29T02:51:45;5.47;;;2.00;;
15776;SDS011;7989;51.198;6.676;2022-07-29T02:54:19;5.28;;;2.13;;
15776;SDS011;7989;51.198;6.676;2022-07-29T02:56:48;6.10;;;2.38;;
15776;SDS011;7989;51.198;6.676;2022-07-29T02:59:19;5.57;;;1.98;;
15776;SDS011;7989;51.198;6.676;2022-07-29T03:01:49;9.65;;;2.30;;
15776;SDS011;7989;51.198;6.676;2022-07-29T03:04:19;5.03;;;1.92;;
15776;SDS011;7989;51.198;6.676;2022-07-29T03:06:48;5.85;;;1.77;;
15776;SDS011;7989;51.198;6.676;2022-07-29T03:09:16;4.47;;;2.13;;
15776;SDS011;7989;51.198;6.676;2022-07-29T03:11:44;5.07;;;2.72;;
15776;SDS011;7989;51.198;6.676;2022-07-29T03:14:11;2.40;;;1.30;;
15776;SDS011;7989;51.198;6.676;2022-07-29T03:16:39;5.80;;;2.22;;
15776;SDS011;7989;51.198;6.676;2022-07-29T03:19:06;5.32;;;1.80;;
15776;SDS011;7989;51.198;6.676;2022-07-29T03:21:34;5.00;;;1.67;;
15776;SDS011;7989;51.198;6.676;2022-07-29T03:24:01;8.85;;;1.92;;
15776;SDS011;7989;51.198;6.676;2022-07-29T03:26:28;14.50;;;3.67;;
15776;SDS011;7989;51.198;6.676;2022-07-29T03:28:55;6.88;;;2.30;;
15776;SDS011;7989;51.198;6.676;2022-07-29T03:31:22;6.63;;;2.00;;
15776;SDS011;7989;51.198;6.676;2022-07-29T03:33:48;8.13;;;2.40;;
15776;SDS011;7989;51.198;6.676;2022-07-29T03:36:15;11.80;;;4.25;;
15776;SDS011;7989;51.198;6.676;2022-07-29T03:38:44;5.55;;;3.55;;
15776;SDS011;7989;51.198;6.676;2022-07-29T03:41:11;9.40;;;3.15;;
15776;SDS011;7989;51.198;6.676;2022-07-29T03:43:40;6.88;;;2.85;;
15776;SDS011;7989;51.198;6.676;2022-07-29T03:46:09;8.27;;;3.45;;
15776;SDS011;7989;51.198;6.676;2022-07-29T03:48:39;5.20;;;2.75;;
15776;SDS011;7989;51.198;6.676;2022-07-29T03:51:09;5.68;;;2.65;;
15776;SDS011;7989;51.198;6.676;2022-07-29T03:53:36;2.80;;;2.13;;
15776;SDS011;7989;51.198;6.676;2022-07-29T03:56:05;5.32;;;2.05;;
15776;SDS011;7989;51.198;6.676;2022-07-29T03:58:34;4.10;;;2.35;;
15776;SDS011;7989;51.198;6.676;2022-07-29T04:01:02;8.75;;;2.85;;
15776;SDS011;7989;51.198;6.676;2022-07-29T04:03:29;7.70;;;2.78;;
15776;SDS011;7989;51.198;6.676;2022-07-29T04:06:00;5.80;;;2.17;;
15776;SDS011;7989;51.198;6.676;2022-07-29T04:08:30;5.68;;;2.63;;
15776;SDS011;7989;51.198;6.676;2022-07-29T04:10:57;4.53;;;2.75;;
15776;SDS011;7989;51.198;6.676;2022-07-29T04:13:25;4.35;;;2.42;;
15776;SDS011;7989;51.198;6.676;2022-07-29T04:15:52;3.20;;;2.25;;
15776;SDS011;7989;51.198;6.676;2022-07-29T04:18:19;8.20;;;2.20;;
15776;SDS011;7989;51.198;6.676;2022-07-29T04:20:46;5.70;;;2.70;;
15776;SDS011;7989;51.198;6.676;2022-07-29T04:23:13;9.68;;;2.38;;
15776;SDS011;7989;51.198;6.676;2022-07-29T04:25:40;7.93;;;2.60;;
15776;SDS011;7989;51.198;6.676;2022-07-29T04:28:08;6.05;;;2.53;;
15776;SDS011;7989;51.198;6.676;2022-07-29T04:30:36;7.28;;;2.95;;
15776;SDS011;7989;51.198;6.676;2022-07-29T04:33:04;4.28;;;2.47;;
15776;SDS011;7989;51.198;6.676;2022-07-29T04:35:34;4.50;;;2.45;;
15776;SDS011;7989;51.198;6.676;2022-07-29T04:38:02;11.30;;;3.40;;
15776;SDS011;7989;51.198;6.676;2022-07-29T04:40:30;6.75;;;2.90;;
15776;SDS011;7989;51.198;6.676;2022-07-29T04:42:58;5.03;;;3.03;;
15776;SDS011;7989;51.198;6.676;2022-07-29T04:45:25;5.53;;;2.95;;
15776;SDS011;7989;51.198;6.676;2022-07-29T04:47:53;7.15;;;2.90;;
15776;SDS011;7989;51.198;6.676;2022-07-29T04:50:20;4.47;;;3.22;;
15776;SDS011;7989;51.198;6.676;2022-07-29T04:52:47;6.32;;;3.67;;
15776;SDS011;7989;51.198;6.676;2022-07-29T04:55:14;8.00;;;4.00;;
15776;SDS011;7989;51.198;6.676;2022-07-29T04:57:41;11.20;;;4.72;;
15776;SDS011;7989;51.198;6.676;2022-07-29T05:00:08;8.00;;;3.97;;
15776;SDS011;7989;51.198;6.676;2022-07-29T05:02:35;9.30;;;5.20;;
15776;SDS011;7989;51.198;6.676;2022-07-29T05:05:04;13.02;;;4.85;;
15776;SDS011;7989;51.198;6.676;2022-07-29T05:07:31;9.02;;;4.20;;
15776;SDS011;7989;51.198;6.676;2022-07-29T05:09:58;11.93;;;4.38;;
15776;SDS011;7989;51.198;6.676;2022-07-29T05:12:25;6.70;;;3.30;;
15776;SDS011;7989;51.198;6.676;2022-07-29T05:14:52;6.10;;;3.65;;
15776;SDS011;7989;51.198;6.676;2022-07-29T05:17:19;4.07;;;2.70;;
15776;SDS011;7989;51.198;6.676;2022-07-29T05:19:46;5.10;;;2.70;;
15776;SDS011;7989;51.198;6.676;2022-07-29T05:22:14;5.75;;;3.30;;
15776;SDS011;7989;51.198;6.676;2022-07-29T05:24:41;7.32;;;2.97;;
15776;SDS011;7989;51.198;6.676;2022-07-29T05:27:08;8.20;;;3.70;;
15776;SDS011;7989;51.198;6.676;2022-07-29T05:29:35;9.80;;;3.80;;
15776;SDS011;7989;51.198;6.676;2022-07-29T05:32:02;9.98;;;3.40;;
15776;SDS011;7989;51.198;6.676;2022-07-29T05:34:29;6.65;;;2.70;;
15776;SDS011;7989;51.198;6.676;2022-07-29T05:36:56;6.30;;;3.20;;
15776;SDS011;7989;51.198;6.676;2022-07-29T05:39:25;5.95;;;2.83;;
15776;SDS011;7989;51.198;6.676;2022-07-29T05:41:51;5.78;;;2.78;;
15776;SDS011;7989;51.198;6.676;2022-07-29T05:44:18;6.55;;;3.03;;
15776;SDS011;7989;51.198;6.676;2022-07-29T05:46:45;5.07;;;3.13;;
15776;SDS011;7989;51.198;6.676;2022-07-29T05:49:12;7.93;;;2.88;;
15776;SDS011;7989;51.198;6.676;2022-07-29T05:51:39;8.90;;;2.83;;
15776;SDS011;7989;51.198;6.676;2022-07-29T05:54:06;7.88;;;2.88;;
15776;SDS011;7989;51.198;6.676;2022-07-29T05:56:35;9.82;;;2.70;;
15776;SDS011;7989;51.198;6.676;2022-07-29T05:59:02;8.25;;;2.92;;
15776;SDS011;7989;51.198;6.676;2022-07-29T06:01:29;9.35;;;3.67;;
15776;SDS011;7989;51.198;6.676;2022-07-29T06:03:56;8.32;;;3.40;;
15776;SDS011;7989;51.198;6.676;2022-07-29T06:06:23;6.05;;;3.70;;
15776;SDS011;7989;51.198;6.676;2022-07-29T06:08:50;10.07;;;3.88;;
15776;SDS011;7989;51.198;6.676;2022-07-29T06:11:16;8.85;;;3.30;;
15776;SDS011;7989;51.198;6.676;2022-07-29T06:13:45;14.65;;;3.42;;
15776;SDS011;7989;51.198;6.676;2022-07-29T06:16:12;10.30;;;3.72;;
15776;SDS011;7989;51.198;6.676;2022-07-29T06:18:39;6.50;;;3.35;;
15776;SDS011;7989;51.198;6.676;2022-07-29T06:21:07;8.38;;;3.60;;
15776;SDS011;7989;51.198;6.676;2022-07-29T06:23:35;7.30;;;3.30;;
15776;SDS011;7989;51.198;6.676;2022-07-29T06:26:03;6.57;;;2.90;;
15776;SDS011;7989;51.198;6.676;2022-07-29T06:28:30;7.25;;;2.63;;
15776;SDS011;7989;51.198;6.676;2022-07-29T06:30:59;4.35;;;2.60;;
15776;SDS011;7989;51.198;6.676;2022-07-29T06:33:26;10.70;;;3.70;;
15776;SDS011;7989;51.198;6.676;2022-07-29T06:35:52;7.85;;;3.78;;
15776;SDS011;7989;51.198;6.676;2022-07-29T06:38:19;9.38;;;4.18;;
15776;SDS011;7989;51.198;6.676;2022-07-29T06:40:46;10.20;;;3.75;;
15776;SDS011;7989;51.198;6.676;2022-07-29T06:43:32;8.85;;;3.63;;
15776;SDS011;7989;51.198;6.676;2022-07-29T06:46:04;7.43;;;3.47;;
15776;SDS011;7989;51.198;6.676;2022-07-29T06:48:32;6.05;;;2.92;;
15776;SDS011;7989;51.198;6.676;2022-07-29T06:51:00;9.70;;;3.47;;
15776;SDS011;7989;51.198;6.676;2022-07-29T06:53:27;8.02;;;3.90;;
15776;SDS011;7989;51.198;6.676;2022-07-29T06:55:54;5.05;;;3.10;;
15776;SDS011;7989;51.198;6.676;2022-07-29T06:58:23;6.68;;;3.38;;
15776;SDS011;7989;51.198;6.676;2022-07-29T07:00:50;9.25;;;3.65;;
15776;SDS011;7989;51.198;6.676;2022-07-29T07:03:18;7.53;;;3.00;;
15776;SDS011;7989;51.198;6.676;2022-07-29T07:05:45;7.60;;;3.50;;
15776;SDS011;7989;51.198;6.676;2022-07-29T07:08:12;8.30;;;3.80;;
15776;SDS011;7989;51.198;6.676;2022-07-29T07:10:41;8.10;;;3.92;;
15776;SDS011;7989;51.198;6.676;2022-07-29T07:13:08;6.25;;;3.85;;
15776;SDS011;7989;51.198;6.676;2022-07-29T07:15:35;6.30;;;3.40;;
15776;SDS011;7989;51.198;6.676;2022-07-29T07:18:02;5.85;;;3.10;;
15776;SDS011;7989;51.198;6.676;2022-07-29T07:20:32;6.40;;;3.53;;
15776;SDS011;7989;51.198;6.676;2022-07-29T07:22:59;5.82;;;3.45;;
15776;SDS011;7989;51.198;6.676;2022-07-29T07:25:26;4.78;;;3.53;;
15776;SDS011;7989;51.198;6.676;2022-07-29T07:27:53;7.55;;;4.13;;
15776;SDS011;7989;51.198;6.676;2022-07-29T07:30:20;7.00;;;3.42;;
15776;SDS011;7989;51.198;6.676;2022-07-29T07:32:47;5.45;;;3.45;;
15776;SDS011;7989;51.198;6.676;2022-07-29T07:35:14;6.20;;;3.17;;
15776;SDS011;7989;51.198;6.676;2022-07-29T07:37:42;7.25;;;3.63;;
15776;SDS011;7989;51.198;6.676;2022-07-29T07:40:09;5.50;;;3.67;;
15776;SDS011;7989;51.198;6.676;2022-07-29T07:42:37;11.38;;;4.38;;
15776;SDS011;7989;51.198;6.676;2022-07-29T07:45:04;4.93;;;3.90;;
15776;SDS011;7989;51.198;6.676;2022-07-29T07:47:34;8.95;;;4.03;;
15776;SDS011;7989;51.198;6.676;2022-07-29T07:50:01;6.10;;;3.97;;
15776;SDS011;7989;51.198;6.676;2022-07-29T07:52:28;7.82;;;3.97;;
15776;SDS011;7989;51.198;6.676;2022-07-29T07:54:57;7.03;;;4.82;;
15776;SDS011;7989;51.198;6.676;2022-07-29T07:57:23;8.43;;;4.70;;
15776;SDS011;7989;51.198;6.676;2022-07-29T07:59:50;7.10;;;4.22;;
15776;SDS011;7989;51.198;6.676;2022-07-29T08:02:17;8.50;;;4.38;;
15776;SDS011;7989;51.198;6.676;2022-07-29T08:04:44;7.32;;;4.15;;
15776;SDS011;7989;51.198;6.676;2022-07-29T08:07:11;5.95;;;4.20;;
15776;SDS011;7989;51.198;6.676;2022-07-29T08:09:39;6.68;;;4.07;;
15776;SDS011;7989;51.198;6.676;2022-07-29T08:12:08;7.18;;;4.30;;
15776;SDS011;7989;51.198;6.676;2022-07-29T08:14:35;6.38;;;4.00;;
15776;SDS011;7989;51.198;6.676;2022-07-29T08:17:02;7.60;;;3.75;;
15776;SDS011;7989;51.198;6.676;2022-07-29T08:19:29;9.77;;;4.40;;
15776;SDS011;7989;51.198;6.676;2022-07-29T08:21:55;11.75;;;4.40;;
15776;SDS011;7989;51.198;6.676;2022-07-29T08:24:22;10.48;;;3.92;;
15776;SDS011;7989;51.198;6.676;2022-07-29T08:27:08;5.85;;;3.80;;
15776;SDS011;7989;51.198;6.676;2022-07-29T08:29:35;7.68;;;3.58;;
15776;SDS011;7989;51.198;6.676;2022-07-29T08:32:02;6.68;;;3.42;;
15776;SDS011;7989;51.198;6.676;2022-07-29T08:34:30;5.03;;;3.63;;
15776;SDS011;7989;51.198;6.676;2022-07-29T08:36:57;6.53;;;3.92;;
15776;SDS011;7989;51.198;6.676;2022-07-29T08:39:25;6.70;;;3.80;;
15776;SDS011;7989;51.198;6.676;2022-07-29T08:41:51;6.38;;;3.72;;
15776;SDS011;7989;51.198;6.676;2022-07-29T08:44:21;8.57;;;4.15;;
15776;SDS011;7989;51.198;6.676;2022-07-29T08:46:48;5.70;;;3.75;;
15776;SDS011;7989;51.198;6.676;2022-07-29T08:49:15;10.82;;;4.03;;
15776;SDS011;7989;51.198;6.676;2022-07-29T08:51:43;9.43;;;4.22;;
15776;SDS011;7989;51.198;6.676;2022-07-29T08:54:10;8.57;;;4.38;;
15776;SDS011;7989;51.198;6.676;2022-07-29T08:56:42;4.70;;;3.38;;
15776;SDS011;7989;51.198;6.676;2022-07-29T08:59:10;8.07;;;3.65;;
15776;SDS011;7989;51.198;6.676;2022-07-29T09:01:40;6.63;;;4.00;;
15776;SDS011;7989;51.198;6.676;2022-07-29T09:04:11;6.88;;;3.50;;
15776;SDS011;7989;51.198;6.676;2022-07-29T09:06:40;8.38;;;4.45;;
15776;SDS011;7989;51.198;6.676;2022-07-29T09:09:10;6.47;;;3.47;;
15776;SDS011;7989;51.198;6.676;2022-07-29T09:11:38;9.60;;;4.55;;
15776;SDS011;7989;51.198;6.676;2022-07-29T09:14:06;7.90;;;4.72;;
15776;SDS011;7989;51.198;6.676;2022-07-29T09:16:44;15.38;;;4.00;;
15776;SDS011;7989;51.198;6.676;2022-07-29T09:19:19;8.35;;;3.75;;
15776;SDS011;7989;51.198;6.676;2022-07-29T09:21:47;7.13;;;3.55;;
15776;SDS011;7989;51.198;6.676;2022-07-29T09:27:09;11.23;;;3.83;;
15776;SDS011;7989;51.198;6.676;2022-07-29T09:29:37;4.80;;;3.72;;
15776;SDS011;7989;51.198;6.676;2022-07-29T09:32:08;6.63;;;3.42;;
15776;SDS011;7989;51.198;6.676;2022-07-29T09:34:36;5.65;;;3.20;;
15776;SDS011;7989;51.198;6.676;2022-07-29T09:37:03;9.05;;;3.28;;
15776;SDS011;7989;51.198;6.676;2022-07-29T09:39:31;5.25;;;3.22;;
15776;SDS011;7989;51.198;6.676;2022-07-29T09:41:59;8.40;;;3.55;;
15776;SDS011;7989;51.198;6.676;2022-07-29T09:44:40;7.75;;;3.70;;
15776;SDS011;7989;51.198;6.676;2022-07-29T09:47:10;6.60;;;3.75;;
15776;SDS011;7989;51.198;6.676;2022-07-29T09:49:50;4.40;;;3.25;;
15776;SDS011;7989;51.198;6.676;2022-07-29T09:52:18;5.40;;;3.83;;
15776;SDS011;7989;51.198;6.676;2022-07-29T09:54:45;6.35;;;3.70;;
15776;SDS011;7989;51.198;6.676;2022-07-29T09:57:22;8.25;;;4.03;;
15776;SDS011;7989;51.198;6.676;2022-07-29T10:00:01;7.65;;;3.88;;
15776;SDS011;7989;51.198;6.676;2022-07-29T10:02:32;5.05;;;3.38;;
15776;SDS011;7989;51.198;6.676;2022-07-29T10:05:01;6.38;;;3.13;;
15776;SDS011;7989;51.198;6.676;2022-07-29T10:07:42;8.35;;;3.40;;
15776;SDS011;7989;51.198;6.676;2022-07-29T10:10:10;7.85;;;4.13;;
15776;SDS011;7989;51.198;6.676;2022-07-29T10:12:54;8.38;;;3.92;;
15776;SDS011;7989;51.198;6.676;2022-07-29T10:15:22;5.88;;;3.92;;
15776;SDS011;7989;51.198;6.676;2022-07-29T10:17:53;10.68;;;3.75;;
15776;SDS011;7989;51.198;6.676;2022-07-29T10:20:21;8.02;;;3.72;;
15776;SDS011;7989;51.198;6.676;2022-07-29T10:22:50;8.27;;;3.95;;
15776;SDS011;7989;51.198;6.676;2022-07-29T10:25:18;6.03;;;3.53;;
15776;SDS011;7989;51.198;6.676;2022-07-29T10:27:46;7.47;;;3.05;;
15776;SDS011;7989;51.198;6.676;2022-07-29T10:30:16;6.57;;;3.42;;
15776;SDS011;7989;51.198;6.676;2022-07-29T10:35:46;7.20;;;4.22;;
15776;SDS011;7989;51.198;6.676;2022-07-29T10:38:29;8.32;;;3.40;;
15776;SDS011;7989;51.198;6.676;2022-07-29T10:41:11;5.28;;;2.92;;
15776;SDS011;7989;51.198;6.676;2022-07-29T10:43:55;7.20;;;3.60;;
15776;SDS011;7989;51.198;6.676;2022-07-29T10:46:25;7.10;;;3.35;;
15776;SDS011;7989;51.198;6.676;2022-07-29T10:49:08;8.77;;;3.28;;
15776;SDS011;7989;51.198;6.676;2022-07-29T10:51:55;6.15;;;3.17;;
15776;SDS011;7989;51.198;6.676;2022-07-29T10:54:35;3.50;;;2.60;;
15776;SDS011;7989;51.198;6.676;2022-07-29T10:57:15;5.70;;;3.03;;
15776;SDS011;7989;51.198;6.676;2022-07-29T10:59:45;7.88;;;3.25;;
15776;SDS011;7989;51.198;6.676;2022-07-29T11:05:10;6.00;;;2.65;;
15776;SDS011;7989;51.198;6.676;2022-07-29T11:07:38;10.60;;;4.20;;
15776;SDS011;7989;51.198;6.676;2022-07-29T11:10:25;6.50;;;3.47;;
15776;SDS011;7989;51.198;6.676;2022-07-29T11:12:52;10.05;;;5.20;;
15776;SDS011;7989;51.198;6.676;2022-07-29T11:15:20;8.73;;;4.18;;
15776;SDS011;7989;51.198;6.676;2022-07-29T11:18:07;7.95;;;3.55;;
15776;SDS011;7989;51.198;6.676;2022-07-29T11:20:40;6.13;;;3.17;;
15776;SDS011;7989;51.198;6.676;2022-07-29T11:23:22;8.43;;;5.00;;
15776;SDS011;7989;51.198;6.676;2022-07-29T11:28:49;6.90;;;4.97;;
15776;SDS011;7989;51.198;6.676;2022-07-29T11:31:30;11.50;;;4.65;;
15776;SDS011;7989;51.198;6.676;2022-07-29T11:39:45;10.85;;;5.80;;
15776;SDS011;7989;51.198;6.676;2022-07-29T11:45:06;8.82;;;4.93;;
15776;SDS011;7989;51.198;6.676;2022-07-29T11:47:36;10.93;;;4.40;;
15776;SDS011;7989;51.198;6.676;2022-07-29T11:50:07;7.35;;;4.20;;
15776;SDS011;7989;51.198;6.676;2022-07-29T11:52:37;14.95;;;5.40;;
15776;SDS011;7989;51.198;6.676;2022-07-29T11:55:10;8.90;;;4.75;;
15776;SDS011;7989;51.198;6.676;2022-07-29T11:57:45;8.32;;;4.88;;
15776;SDS011;7989;51.198;6.676;2022-07-29T12:00:19;13.23;;;5.28;;
15776;SDS011;7989;51.198;6.676;2022-07-29T12:02:48;7.53;;;5.00;;
15776;SDS011;7989;51.198;6.676;2022-07-29T12:05:15;8.52;;;5.00;;
15776;SDS011;7989;51.198;6.676;2022-07-29T12:07:44;7.03;;;5.43;;
15776;SDS011;7989;51.198;6.676;2022-07-29T12:10:12;11.05;;;6.00;;
15776;SDS011;7989;51.198;6.676;2022-07-29T12:12:39;8.15;;;4.32;;
15776;SDS011;7989;51.198;6.676;2022-07-29T12:15:13;13.30;;;4.90;;
15776;SDS011;7989;51.198;6.676;2022-07-29T12:17:42;7.85;;;4.78;;
15776;SDS011;7989;51.198;6.676;2022-07-29T12:20:09;6.68;;;4.18;;
15776;SDS011;7989;51.198;6.676;2022-07-29T12:22:39;11.02;;;5.05;;
15776;SDS011;7989;51.198;6.676;2022-07-29T12:25:10;8.80;;;4.57;;
15776;SDS011;7989;51.198;6.676;2022-07-29T12:27:41;10.40;;;5.13;;
15776;SDS011;7989;51.198;6.676;2022-07-29T12:30:10;10.23;;;5.38;;
15776;SDS011;7989;51.198;6.676;2022-07-29T12:32:39;10.80;;;5.18;;
15776;SDS011;7989;51.198;6.676;2022-07-29T12:35:07;11.35;;;4.93;;
15776;SDS011;7989;51.198;6.676;2022-07-29T12:37:36;10.75;;;5.68;;
15776;SDS011;7989;51.198;6.676;2022-07-29T12:40:05;10.88;;;5.88;;
15776;SDS011;7989;51.198;6.676;2022-07-29T12:42:34;10.98;;;5.97;;
15776;SDS011;7989;51.198;6.676;2022-07-29T12:45:02;11.43;;;6.25;;
15776;SDS011;7989;51.198;6.676;2022-07-29T12:47:30;10.95;;;5.50;;
15776;SDS011;7989;51.198;6.676;2022-07-29T12:50:07;10.10;;;5.30;;
15776;SDS011;7989;51.198;6.676;2022-07-29T12:52:36;9.73;;;5.68;;
15776;SDS011;7989;51.198;6.676;2022-07-29T12:55:03;9.48;;;4.70;;
15776;SDS011;7989;51.198;6.676;2022-07-29T12:57:31;13.77;;;7.50;;
15776;SDS011;7989;51.198;6.676;2022-07-29T13:00:00;7.47;;;5.13;;
15776;SDS011;7989;51.198;6.676;2022-07-29T13:02:32;8.18;;;4.60;;
15776;SDS011;7989;51.198;6.676;2022-07-29T13:04:59;7.90;;;4.38;;
15776;SDS011;7989;51.198;6.676;2022-07-29T13:07:29;5.10;;;3.00;;
15776;SDS011;7989;51.198;6.676;2022-07-29T13:10:09;9.10;;;3.42;;
15776;SDS011;7989;51.198;6.676;2022-07-29T13:12:37;8.00;;;3.22;;
15776;SDS011;7989;51.198;6.676;2022-07-29T13:15:14;10.13;;;3.70;;
15776;SDS011;7989;51.198;6.676;2022-07-29T13:17:41;8.77;;;3.83;;
15776;SDS011;7989;51.198;6.676;2022-07-29T13:20:09;6.70;;;3.38;;
15776;SDS011;7989;51.198;6.676;2022-07-29T13:22:39;7.03;;;4.03;;
15776;SDS011;7989;51.198;6.676;2022-07-29T13:25:07;5.72;;;3.60;;
15776;SDS011;7989;51.198;6.676;2022-07-29T13:27:36;7.18;;;3.53;;
15776;SDS011;7989;51.198;6.676;2022-07-29T13:30:05;5.15;;;3.20;;
15776;SDS011;7989;51.198;6.676;2022-07-29T13:32:35;4.85;;;3.30;;
15776;SDS011;7989;51.198;6.676;2022-07-29T13:35:03;7.18;;;3.80;;
15776;SDS011;7989;51.198;6.676;2022-07-29T13:37:32;7.00;;;3.25;;
15776;SDS011;7989;51.198;6.676;2022-07-29T13:39:59;6.32;;;3.35;;
15776;SDS011;7989;51.198;6.676;2022-07-29T13:42:28;10.00;;;4.00;;
15776;SDS011;7989;51.198;6.676;2022-07-29T13:44:55;5.18;;;3.75;;
15776;SDS011;7989;51.198;6.676;2022-07-29T13:47:22;11.20;;;3.88;;
15776;SDS011;7989;51.198;6.676;2022-07-29T13:49:50;6.28;;;3.40;;
15776;SDS011;7989;51.198;6.676;2022-07-29T13:52:18;4.85;;;3.60;;
15776;SDS011;7989;51.198;6.676;2022-07-29T13:54:45;7.47;;;3.92;;
15776;SDS011;7989;51.198;6.676;2022-07-29T13:57:13;8.40;;;3.78;;
15776;SDS011;7989;51.198;6.676;2022-07-29T13:59:40;9.68;;;3.45;;
15776;SDS011;7989;51.198;6.676;2022-07-29T14:02:08;6.68;;;2.97;;
15776;SDS011;7989;51.198;6.676;2022-07-29T14:04:35;9.82;;;3.03;;
15776;SDS011;7989;51.198;6.676;2022-07-29T14:07:04;5.00;;;3.25;;
15776;SDS011;7989;51.198;6.676;2022-07-29T14:09:30;8.80;;;3.65;;
15776;SDS011;7989;51.198;6.676;2022-07-29T14:11:57;6.40;;;3.00;;
15776;SDS011;7989;51.198;6.676;2022-07-29T14:14:24;8.60;;;3.10;;
15776;SDS011;7989;51.198;6.676;2022-07-29T14:16:51;7.28;;;2.75;;
15776;SDS011;7989;51.198;6.676;2022-07-29T14:19:18;5.63;;;2.85;;
15776;SDS011;7989;51.198;6.676;2022-07-29T14:21:45;6.85;;;2.90;;
15776;SDS011;7989;51.198;6.676;2022-07-29T14:24:13;4.93;;;2.70;;
15776;SDS011;7989;51.198;6.676;2022-07-29T14:26:40;8.93;;;2.60;;
15776;SDS011;7989;51.198;6.676;2022-07-29T14:29:06;7.72;;;5.30;;
15776;SDS011;7989;51.198;6.676;2022-07-29T14:31:33;4.50;;;2.78;;
15776;SDS011;7989;51.198;6.676;2022-07-29T14:34:00;7.28;;;3.20;;
15776;SDS011;7989;51.198;6.676;2022-07-29T14:36:27;7.90;;;2.80;;
15776;SDS011;7989;51.198;6.676;2022-07-29T14:38:54;6.85;;;2.28;;
15776;SDS011;7989;51.198;6.676;2022-07-29T14:41:22;4.72;;;2.22;;
15776;SDS011;7989;51.198;6.676;2022-07-29T14:43:49;3.83;;;2.10;;
15776;SDS011;7989;51.198;6.676;2022-07-29T14:46:17;5.28;;;2.17;;
15776;SDS011;7989;51.198;6.676;2022-07-29T14:48:44;6.15;;;2.08;;
15776;SDS011;7989;51.198;6.676;2022-07-29T14:51:11;6.88;;;2.55;;
15776;SDS011;7989;51.198;6.676;2022-07-29T14:53:38;4.22;;;2.20;;
15776;SDS011;7989;51.198;6.676;2022-07-29T14:56:05;5.38;;;2.03;;
15776;SDS011;7989;51.198;6.676;2022-07-29T14:58:33;3.95;;;2.10;;
15776;SDS011;7989;51.198;6.676;2022-07-29T15:01:00;4.30;;;2.20;;
15776;SDS011;7989;51.198;6.676;2022-07-29T15:03:27;7.00;;;2.38;;
15776;SDS011;7989;51.198;6.676;2022-07-29T15:05:54;2.38;;;1.80;;
15776;SDS011;7989;51.198;6.676;2022-07-29T15:08:21;9.00;;;2.05;;
15776;SDS011;7989;51.198;6.676;2022-07-29T15:10:48;10.68;;;3.20;;
15776;SDS011;7989;51.198;6.676;2022-07-29T15:13:15;3.53;;;1.98;;
15776;SDS011;7989;51.198;6.676;2022-07-29T15:15:43;7.00;;;2.28;;
15776;SDS011;7989;51.198;6.676;2022-07-29T15:18:10;6.35;;;2.20;;
15776;SDS011;7989;51.198;6.676;2022-07-29T15:20:37;5.28;;;2.15;;
15776;SDS011;7989;51.198;6.676;2022-07-29T15:23:04;4.93;;;2.60;;
15776;SDS011;7989;51.198;6.676;2022-07-29T15:25:34;8.93;;;2.42;;
15776;SDS011;7989;51.198;6.676;2022-07-29T15:28:02;4.55;;;2.55;;
15776;SDS011;7989;51.198;6.676;2022-07-29T15:30:32;6.43;;;1.83;;
15776;SDS011;7989;51.198;6.676;2022-07-29T15:33:02;4.15;;;2.10;;
15776;SDS011;7989;51.198;6.676;2022-07-29T15:35:29;5.03;;;1.90;;